createdAt,value
2023-04-12T00:02:01.704Z,9.97
2023-04-12T00:04:29.304Z,6.70
2023-04-12T00:06:56.653Z,7.20
2023-04-12T00:09:23.718Z,11.50
2023-04-12T00:11:50.999Z,12.00
2023-04-12T00:14:18.060Z,9.40
2023-04-12T00:16:45.181Z,5.70
2023-04-12T00:19:12.272Z,8.83
2023-04-12T00:21:39.442Z,9.13
2023-04-12T00:24:06.632Z,6.20
2023-04-12T00:26:33.668Z,7.80
2023-04-12T00:29:01.119Z,13.77
2023-04-12T00:31:28.442Z,9.40
2023-04-12T00:33:55.900Z,9.03
2023-04-12T00:36:23.294Z,5.07
2023-04-12T00:38:50.392Z,9.20
2023-04-12T00:41:18.224Z,7.10
2023-04-12T00:43:45.264Z,7.30
2023-04-12T00:46:12.504Z,7.60
2023-04-12T00:48:40.158Z,5.27
2023-04-12T00:51:07.876Z,6.97
2023-04-12T00:53:34.983Z,6.73
2023-04-12T00:56:03.513Z,4.60
2023-04-12T00:58:31.782Z,3.57
2023-04-12T01:00:58.900Z,9.33
2023-04-12T01:03:27.691Z,11.80
2023-04-12T01:05:55.673Z,7.23
2023-04-12T01:08:34.104Z,3.23
2023-04-12T01:11:08.110Z,6.40
2023-04-12T01:13:45.164Z,7.90
2023-04-12T01:16:12.719Z,5.53
2023-04-12T01:18:41.533Z,8.17
2023-04-12T01:21:10.126Z,5.70
2023-04-12T01:23:48.656Z,6.97
2023-04-12T01:26:37.037Z,9.63
2023-04-12T01:29:08.914Z,7.60
2023-04-12T01:31:37.187Z,5.83
2023-04-12T01:34:05.686Z,4.20
2023-04-12T01:36:33.547Z,8.67
2023-04-12T01:39:01.472Z,7.73
2023-04-12T01:41:28.502Z,4.87
2023-04-12T01:43:55.856Z,6.80
2023-04-12T01:46:24.007Z,8.93
2023-04-12T01:48:52.419Z,6.67
2023-04-12T01:51:35.870Z,7.07
2023-04-12T01:54:23.196Z,8.07
2023-04-12T01:56:51.498Z,7.10
2023-04-12T01:59:19.952Z,5.73
2023-04-12T02:01:47.463Z,8.30
2023-04-12T02:04:15.637Z,5.13
2023-04-12T02:06:43.039Z,10.13
2023-04-12T02:09:10.213Z,3.93
2023-04-12T02:11:37.317Z,5.13
2023-04-12T02:14:04.608Z,12.73
2023-04-12T02:16:32.372Z,4.87
2023-04-12T02:18:59.573Z,10.80
2023-04-12T02:21:27.792Z,8.43
2023-04-12T02:23:55.373Z,4.63
2023-04-12T02:26:23.386Z,5.63
2023-04-12T02:28:50.603Z,4.27
2023-04-12T02:31:18.584Z,5.20
2023-04-12T02:33:45.823Z,6.60
2023-04-12T02:36:12.933Z,6.50
2023-04-12T02:38:40.120Z,7.30
2023-04-12T02:41:07.648Z,4.03
2023-04-12T02:43:34.724Z,5.30
2023-04-12T02:46:01.799Z,6.10
2023-04-12T02:48:28.870Z,7.10
2023-04-12T02:50:55.976Z,3.43
2023-04-12T02:53:23.049Z,6.53
2023-04-12T02:55:50.302Z,4.77
2023-04-12T02:58:17.454Z,6.57
2023-04-12T03:00:46.490Z,9.10
2023-04-12T03:03:13.668Z,6.07
2023-04-12T03:05:40.738Z,6.23
2023-04-12T03:08:08.044Z,5.63
2023-04-12T03:10:35.195Z,9.07
2023-04-12T03:13:02.241Z,4.87
2023-04-12T03:15:29.422Z,8.87
2023-04-12T03:17:56.536Z,6.13
2023-04-12T03:20:28.247Z,6.73
2023-04-12T03:22:55.538Z,6.47
2023-04-12T03:25:22.665Z,7.07
2023-04-12T03:27:49.729Z,6.97
2023-04-12T03:30:16.819Z,3.63
2023-04-12T03:32:44.040Z,4.40
2023-04-12T03:35:11.340Z,8.57
2023-04-12T03:37:41.318Z,6.60
2023-04-12T03:40:09.218Z,3.93
2023-04-12T03:42:36.540Z,6.77
2023-04-12T03:45:03.876Z,4.97
2023-04-12T03:47:31.624Z,4.30
2023-04-12T03:50:12.404Z,7.10
2023-04-12T03:52:40.103Z,4.73
2023-04-12T03:55:09.777Z,4.23
2023-04-12T03:57:36.881Z,3.50
2023-04-12T04:00:04.138Z,6.77
2023-04-12T04:02:34.316Z,3.63
2023-04-12T04:05:02.468Z,3.53
2023-04-12T04:07:29.598Z,4.60
2023-04-12T04:09:56.742Z,2.77
2023-04-12T04:12:23.856Z,5.47
2023-04-12T04:14:50.962Z,3.63
2023-04-12T04:17:18.026Z,2.47
2023-04-12T04:19:45.467Z,3.40
2023-04-12T04:22:12.469Z,3.13
2023-04-12T04:24:40.200Z,7.10
2023-04-12T04:27:07.279Z,4.77
2023-04-12T04:29:34.460Z,10.00
2023-04-12T04:32:02.112Z,3.80
2023-04-12T04:34:29.309Z,2.87
2023-04-12T04:36:57.501Z,6.10
2023-04-12T04:39:24.560Z,5.07
2023-04-12T04:41:54.767Z,5.07
2023-04-12T04:44:22.263Z,3.40
2023-04-12T04:46:51.633Z,3.30
2023-04-12T04:49:18.713Z,3.27
2023-04-12T04:51:45.766Z,2.80
2023-04-12T04:54:14.034Z,5.27
2023-04-12T04:56:43.580Z,3.03
2023-04-12T04:59:10.643Z,4.83
2023-04-12T05:01:38.216Z,4.83
2023-04-12T05:04:05.422Z,4.77
2023-04-12T05:06:34.899Z,3.70
2023-04-12T05:09:01.950Z,4.63
2023-04-12T05:11:28.995Z,3.97
2023-04-12T05:13:59.403Z,3.43
2023-04-12T05:16:26.498Z,3.30
2023-04-12T05:18:55.289Z,6.93
2023-04-12T05:21:24.237Z,4.17
2023-04-12T05:23:51.606Z,5.30
2023-04-12T05:26:18.665Z,3.73
2023-04-12T05:28:46.028Z,4.50
2023-04-12T05:31:13.132Z,2.97
2023-04-12T05:33:40.214Z,6.23
2023-04-12T05:36:07.602Z,8.70
2023-04-12T05:38:34.749Z,6.83
2023-04-12T05:41:04.674Z,5.40
2023-04-12T05:43:32.944Z,4.33
2023-04-12T05:46:00.114Z,5.83
2023-04-12T05:48:27.267Z,6.47
2023-04-12T05:50:54.876Z,2.80
2023-04-12T05:53:22.476Z,4.50
2023-04-12T05:55:49.510Z,5.23
2023-04-12T05:58:16.694Z,5.03
2023-04-12T06:00:44.021Z,6.17
2023-04-12T06:03:11.594Z,2.10
2023-04-12T06:05:39.558Z,5.23
2023-04-12T06:08:06.933Z,4.50
2023-04-12T06:10:34.115Z,2.87
2023-04-12T06:13:01.180Z,3.17
2023-04-12T06:15:28.291Z,2.90
2023-04-12T06:17:55.424Z,3.07
2023-04-12T06:20:22.527Z,2.90
2023-04-12T06:22:49.639Z,2.63
2023-04-12T06:25:16.683Z,5.07
2023-04-12T06:27:44.092Z,6.20
2023-04-12T06:30:11.386Z,3.93
2023-04-12T06:32:38.656Z,3.03
2023-04-12T06:35:06.392Z,4.53
2023-04-12T06:37:33.499Z,2.83
2023-04-12T06:40:00.635Z,3.90
2023-04-12T06:42:27.663Z,4.17
2023-04-12T06:44:54.721Z,3.90
2023-04-12T06:47:22.794Z,5.07
2023-04-12T06:49:54.795Z,4.10
2023-04-12T06:52:26.531Z,23.43
2023-04-12T06:54:54.231Z,2.33
2023-04-12T06:57:21.262Z,3.23
2023-04-12T06:59:48.330Z,4.03
2023-04-12T07:02:15.825Z,3.50
2023-04-12T07:04:42.945Z,3.27
2023-04-12T07:07:10.371Z,3.63
2023-04-12T07:09:37.427Z,4.03
2023-04-12T07:12:04.518Z,3.83
2023-04-12T07:14:31.587Z,2.37
2023-04-12T07:16:58.936Z,4.30
2023-04-12T07:19:26.081Z,2.00
2023-04-12T07:21:53.204Z,3.10
2023-04-12T07:24:20.365Z,3.63
2023-04-12T07:26:47.455Z,3.20
2023-04-12T07:29:14.522Z,2.13
2023-04-12T07:31:41.564Z,1.83
2023-04-12T07:34:08.835Z,3.47
2023-04-12T07:36:36.012Z,2.97
2023-04-12T07:39:03.391Z,3.27
2023-04-12T07:41:30.534Z,2.37
2023-04-12T07:43:57.590Z,1.97
2023-04-12T07:46:25.063Z,1.77
2023-04-12T07:48:52.266Z,2.00
2023-04-12T07:51:19.397Z,1.83
2023-04-12T07:53:48.519Z,1.87
2023-04-12T07:56:16.401Z,2.90
2023-04-12T07:58:43.959Z,3.23
2023-04-12T08:01:13.277Z,2.57
2023-04-12T08:03:40.344Z,2.73
2023-04-12T08:06:07.839Z,2.93
2023-04-12T08:08:35.025Z,2.27
2023-04-12T08:11:03.064Z,3.90
2023-04-12T08:13:30.270Z,2.20
2023-04-12T08:15:57.310Z,2.30
2023-04-12T08:18:24.488Z,2.27
2023-04-12T08:20:52.108Z,2.73
2023-04-12T08:23:19.202Z,1.53
2023-04-12T08:25:46.744Z,1.77
2023-04-12T08:28:14.055Z,2.20
2023-04-12T08:30:41.165Z,3.47
2023-04-12T08:33:08.220Z,1.53
2023-04-12T08:35:35.624Z,1.83
2023-04-12T08:38:07.822Z,2.77
2023-04-12T08:40:35.098Z,2.73
2023-04-12T08:43:03.872Z,1.43
2023-04-12T08:45:31.758Z,1.77
2023-04-12T08:48:01.457Z,1.40
2023-04-12T08:50:28.791Z,2.83
2023-04-12T08:52:56.564Z,1.80
2023-04-12T08:55:23.679Z,1.53
2023-04-12T08:57:53.216Z,2.00
2023-04-12T09:00:21.039Z,1.40
2023-04-12T09:02:49.057Z,1.80
2023-04-12T09:05:16.512Z,1.57
2023-04-12T09:07:43.859Z,2.03
2023-04-12T09:10:10.996Z,1.50
2023-04-12T09:12:47.026Z,1.63
2023-04-12T09:15:15.585Z,2.10
2023-04-12T09:17:43.213Z,3.27
2023-04-12T09:20:13.444Z,5.17
2023-04-12T09:22:44.588Z,1.73
2023-04-12T09:25:11.922Z,1.73
2023-04-12T09:27:49.710Z,1.50
2023-04-12T09:30:17.631Z,4.77
2023-04-12T09:32:45.014Z,1.63
2023-04-12T09:35:12.096Z,1.60
2023-04-12T09:37:40.197Z,1.50
2023-04-12T09:40:08.799Z,2.43
2023-04-12T09:42:37.805Z,1.57
2023-04-12T09:45:21.574Z,1.23
2023-04-12T09:47:48.777Z,2.33
2023-04-12T09:50:26.538Z,2.57
2023-04-12T09:52:53.990Z,1.43
2023-04-12T09:55:23.004Z,1.50
2023-04-12T09:57:51.613Z,1.70
2023-04-12T10:00:19.486Z,1.70
2023-04-12T10:02:48.373Z,1.47
2023-04-12T10:05:19.852Z,1.70
2023-04-12T10:07:47.943Z,4.33
2023-04-12T10:10:16.517Z,1.93
2023-04-12T10:12:45.511Z,3.13
2023-04-12T10:15:13.478Z,2.20
2023-04-12T10:17:47.819Z,1.60
2023-04-12T10:20:16.845Z,1.77
2023-04-12T10:22:45.474Z,3.77
2023-04-12T10:25:13.738Z,3.17
2023-04-12T10:27:42.364Z,1.80
2023-04-12T10:30:26.151Z,2.57
2023-04-12T10:33:05.883Z,5.50
2023-04-12T10:35:51.688Z,4.03
2023-04-12T10:38:19.390Z,2.17
2023-04-12T10:41:05.276Z,6.17
2023-04-12T10:43:32.349Z,2.43
2023-04-12T10:46:04.250Z,5.33
2023-04-12T10:48:31.401Z,2.47
2023-04-12T10:51:14.662Z,2.43
2023-04-12T10:53:42.080Z,2.57
2023-04-12T10:56:29.039Z,2.30
2023-04-12T10:58:58.854Z,4.53
2023-04-12T11:01:26.414Z,2.87
2023-04-12T11:04:13.256Z,3.83
2023-04-12T11:07:02.914Z,5.23
2023-04-12T11:09:37.805Z,3.27
2023-04-12T11:12:04.881Z,4.37
2023-04-12T11:14:38.465Z,3.33
2023-04-12T11:17:17.802Z,2.30
2023-04-12T11:19:51.055Z,2.57
2023-04-12T11:22:18.739Z,2.47
2023-04-12T11:24:47.926Z,2.40
2023-04-12T11:27:16.336Z,2.60
2023-04-12T11:29:43.877Z,3.17
2023-04-12T11:32:14.236Z,4.73
2023-04-12T11:34:42.140Z,3.13
2023-04-12T11:37:09.995Z,3.10
2023-04-12T11:39:41.323Z,3.03
2023-04-12T11:42:13.157Z,2.80
2023-04-12T11:44:56.346Z,3.43
2023-04-12T11:47:26.826Z,3.67
2023-04-12T11:49:58.416Z,4.17
2023-04-12T11:52:33.269Z,4.30
2023-04-12T11:55:06.344Z,4.67
2023-04-12T11:57:34.152Z,4.17
2023-04-12T12:00:01.655Z,4.03
2023-04-12T12:02:33.036Z,5.40
2023-04-12T12:05:02.300Z,3.67
2023-04-12T12:07:29.838Z,3.67
2023-04-12T12:09:57.280Z,3.73
2023-04-12T12:12:25.314Z,4.90
2023-04-12T12:14:52.436Z,3.90
2023-04-12T12:17:19.935Z,3.90
2023-04-12T12:19:47.185Z,3.90
2023-04-12T12:22:15.065Z,4.37
2023-04-12T12:24:46.625Z,3.30
2023-04-12T12:27:14.261Z,3.53
2023-04-12T12:29:41.463Z,3.90
2023-04-12T12:32:12.378Z,2.57
2023-04-12T12:34:39.431Z,2.40
2023-04-12T12:37:10.629Z,1.80
2023-04-12T12:39:37.725Z,2.33
2023-04-12T12:42:06.330Z,4.90
2023-04-12T12:44:37.093Z,1.67
2023-04-12T12:47:13.942Z,1.67
2023-04-12T12:49:42.005Z,2.23
2023-04-12T12:52:09.047Z,4.17
2023-04-12T12:54:41.483Z,2.30
2023-04-12T12:57:08.960Z,1.50
2023-04-12T12:59:36.048Z,1.20
2023-04-12T13:02:03.323Z,1.50
2023-04-12T13:04:30.708Z,5.83
2023-04-12T13:06:57.871Z,1.47
2023-04-12T13:09:25.013Z,3.27
2023-04-12T13:11:52.565Z,2.70
2023-04-12T13:14:19.879Z,1.63
2023-04-12T13:16:49.129Z,1.50
2023-04-12T13:19:16.523Z,1.93
2023-04-12T13:21:43.574Z,2.60
2023-04-12T13:24:11.197Z,1.77
2023-04-12T13:26:38.323Z,3.70
2023-04-12T13:29:05.466Z,3.00
2023-04-12T13:31:32.810Z,2.80
2023-04-12T13:34:00.197Z,1.73
2023-04-12T13:36:27.367Z,5.30
2023-04-12T13:38:54.412Z,5.00
2023-04-12T13:41:21.462Z,6.97
2023-04-12T13:43:48.552Z,3.60
2023-04-12T13:46:15.694Z,4.30
2023-04-12T13:48:42.923Z,4.90
2023-04-12T13:51:10.518Z,5.10
2023-04-12T13:53:37.640Z,6.50
2023-04-12T13:56:04.860Z,8.97
2023-04-12T13:58:31.903Z,6.93
2023-04-12T14:01:00.569Z,5.47
2023-04-12T14:03:27.860Z,2.83
2023-04-12T14:05:55.459Z,4.67
2023-04-12T14:08:22.464Z,6.63
2023-04-12T14:10:49.636Z,5.13
2023-04-12T14:13:16.706Z,9.83
2023-04-12T14:15:43.727Z,6.67
2023-04-12T14:18:10.901Z,7.97
2023-04-12T14:20:37.956Z,4.13
2023-04-12T14:23:07.348Z,4.13
2023-04-12T14:25:36.910Z,4.70
2023-04-12T14:28:03.927Z,8.80
2023-04-12T14:30:31.485Z,5.70
2023-04-12T14:32:58.583Z,5.50
2023-04-12T14:35:25.754Z,6.23
2023-04-12T14:37:53.008Z,8.90
2023-04-12T14:40:20.492Z,7.93
2023-04-12T14:42:47.697Z,10.33
2023-04-12T14:45:15.525Z,13.30
2023-04-12T14:47:42.616Z,9.40
2023-04-12T14:50:09.828Z,6.67
2023-04-12T14:52:36.846Z,7.13
2023-04-12T14:55:04.176Z,6.17
2023-04-12T14:57:31.537Z,7.43
2023-04-12T14:59:58.659Z,2.83
2023-04-12T15:02:26.201Z,2.83
2023-04-12T15:04:53.558Z,4.53
2023-04-12T15:07:20.751Z,7.73
2023-04-12T15:09:47.785Z,8.03
2023-04-12T15:12:14.852Z,9.13
2023-04-12T15:14:42.026Z,7.77
2023-04-12T15:17:10.629Z,12.47
2023-04-12T15:19:37.690Z,11.13
2023-04-12T15:22:04.725Z,15.50
2023-04-12T15:24:31.868Z,12.97
2023-04-12T15:26:58.924Z,10.33
2023-04-12T15:29:28.808Z,9.13
2023-04-12T15:31:56.449Z,10.13
2023-04-12T15:34:25.380Z,10.10
2023-04-12T15:36:52.786Z,7.83
2023-04-12T15:39:19.999Z,5.53
2023-04-12T15:41:47.078Z,5.67
2023-04-12T15:44:14.180Z,8.53
2023-04-12T15:46:41.895Z,7.27
2023-04-12T15:49:09.334Z,8.73
2023-04-12T15:51:36.651Z,6.50
2023-04-12T15:54:05.584Z,7.67
2023-04-12T15:56:32.690Z,7.33
2023-04-12T15:59:01.194Z,8.77
2023-04-12T16:01:28.557Z,9.77
2023-04-12T16:03:55.842Z,10.83
2023-04-12T16:06:24.247Z,6.57
2023-04-12T16:08:52.053Z,8.37
2023-04-12T16:11:20.023Z,7.47
2023-04-12T16:13:48.434Z,5.30
2023-04-12T16:16:17.391Z,6.63
2023-04-12T16:18:45.324Z,5.53
2023-04-12T16:21:16.404Z,6.17
2023-04-12T16:23:44.362Z,11.60
2023-04-12T16:26:14.895Z,6.53
2023-04-12T16:28:44.996Z,11.83
2023-04-12T16:31:15.466Z,17.43
2023-04-12T16:33:45.107Z,20.67
2023-04-12T16:36:12.397Z,15.40
2023-04-12T16:38:39.465Z,11.17
2023-04-12T16:41:07.132Z,13.97
2023-04-12T16:43:34.164Z,12.20
2023-04-12T16:46:05.021Z,11.87
2023-04-12T16:48:32.346Z,9.27
2023-04-12T16:51:01.633Z,11.37
2023-04-12T16:53:28.881Z,8.20
2023-04-12T16:55:58.071Z,12.47
2023-04-12T16:58:25.263Z,12.63
2023-04-12T17:00:53.316Z,15.73
2023-04-12T17:03:30.210Z,10.73
2023-04-12T17:05:57.736Z,10.10
2023-04-12T17:08:24.815Z,8.53
2023-04-12T17:10:51.908Z,11.17
2023-04-12T17:13:20.334Z,10.67
2023-04-12T17:15:48.227Z,7.10
2023-04-12T17:18:15.754Z,11.00
2023-04-12T17:20:43.312Z,9.10
2023-04-12T17:23:10.666Z,6.47
2023-04-12T17:25:38.233Z,10.17
2023-04-12T17:28:07.737Z,14.40
2023-04-12T17:30:34.866Z,11.33
2023-04-12T17:33:02.925Z,6.37
2023-04-12T17:35:30.138Z,9.83
2023-04-12T17:37:57.186Z,10.50
2023-04-12T17:40:24.261Z,9.53
2023-04-12T17:42:51.338Z,5.40
2023-04-12T17:45:19.235Z,7.73
2023-04-12T17:47:46.333Z,2.53
2023-04-12T17:50:13.517Z,2.60
2023-04-12T17:52:41.010Z,2.80
2023-04-12T17:55:12.437Z,3.13
2023-04-12T17:57:39.603Z,2.57
2023-04-12T18:00:11.575Z,3.63
2023-04-12T18:02:38.844Z,4.60
2023-04-12T18:05:07.375Z,3.90
2023-04-12T18:07:34.692Z,4.70
2023-04-12T18:10:02.990Z,5.47
2023-04-12T18:12:30.028Z,3.60
2023-04-12T18:14:57.316Z,3.13
2023-04-12T18:17:26.398Z,4.93
2023-04-12T18:19:53.955Z,4.17
2023-04-12T18:22:21.083Z,3.77
2023-04-12T18:24:48.159Z,4.87
2023-04-12T18:27:15.218Z,2.97
2023-04-12T18:29:42.241Z,4.00
2023-04-12T18:32:09.916Z,3.90
2023-04-12T18:34:37.240Z,3.27
2023-04-12T18:37:05.879Z,7.63
2023-04-12T18:39:35.375Z,3.00
2023-04-12T18:42:02.691Z,2.23
2023-04-12T18:44:30.173Z,2.87
2023-04-12T18:46:57.270Z,2.87
2023-04-12T18:49:24.536Z,5.00
2023-04-12T18:51:53.162Z,2.10
2023-04-12T18:54:21.010Z,2.67
2023-04-12T18:56:48.158Z,2.47
2023-04-12T18:59:17.776Z,3.90
2023-04-12T19:01:45.338Z,3.30
2023-04-12T19:04:12.653Z,4.07
2023-04-12T19:06:39.761Z,6.27
2023-04-12T19:09:08.132Z,4.23
2023-04-12T19:11:37.017Z,6.20
2023-04-12T19:14:05.542Z,3.73
2023-04-12T19:16:32.652Z,3.40
2023-04-12T19:19:00.300Z,3.67
2023-04-12T19:21:29.453Z,2.00
2023-04-12T19:23:56.869Z,3.70
2023-04-12T19:26:24.160Z,2.10
2023-04-12T19:28:55.472Z,3.90
2023-04-12T19:31:23.699Z,2.73
2023-04-12T19:33:50.937Z,3.77
2023-04-12T19:36:18.160Z,2.00
2023-04-12T19:38:47.760Z,4.30
2023-04-12T19:41:16.135Z,2.33
2023-04-12T19:43:43.400Z,6.60
2023-04-12T19:46:10.937Z,5.30
2023-04-12T19:48:38.190Z,3.33
2023-04-12T19:51:05.468Z,2.50
2023-04-12T19:53:33.404Z,2.07
2023-04-12T19:56:03.924Z,3.10
2023-04-12T19:58:31.958Z,3.83
2023-04-12T20:01:02.050Z,2.63
2023-04-12T20:03:29.882Z,5.77
2023-04-12T20:05:58.895Z,9.83
2023-04-12T20:08:28.326Z,4.80
2023-04-12T20:10:55.558Z,3.80
2023-04-12T20:13:22.744Z,5.43
2023-04-12T20:15:50.909Z,2.83
2023-04-12T20:18:17.960Z,3.50
2023-04-12T20:20:45.247Z,2.13
2023-04-12T20:23:13.657Z,2.70
2023-04-12T20:25:41.537Z,2.53
2023-04-12T20:28:09.364Z,3.53
2023-04-12T20:30:36.768Z,4.83
2023-04-12T20:33:04.559Z,3.53
2023-04-12T20:35:32.062Z,6.17
2023-04-12T20:38:00.421Z,3.63
2023-04-12T20:40:29.632Z,3.33
2023-04-12T20:42:57.063Z,3.63
2023-04-12T20:45:24.170Z,2.60
2023-04-12T20:47:51.599Z,3.97
2023-04-12T20:50:22.825Z,4.50
2023-04-12T20:52:51.840Z,3.03
2023-04-12T20:55:19.165Z,3.37
2023-04-12T20:57:46.336Z,2.67
2023-04-12T21:00:17.855Z,4.17
2023-04-12T21:02:48.922Z,4.13
2023-04-12T21:05:17.081Z,3.37
2023-04-12T21:07:46.642Z,6.43
2023-04-12T21:10:14.670Z,5.03
2023-04-12T21:12:44.801Z,3.57
2023-04-12T21:15:12.509Z,5.77
2023-04-12T21:17:40.963Z,5.53
2023-04-12T21:20:11.434Z,3.53
2023-04-12T21:22:38.546Z,8.37
2023-04-12T21:25:07.389Z,7.30
2023-04-12T21:27:35.149Z,8.33
2023-04-12T21:30:04.421Z,4.30
2023-04-12T21:32:32.415Z,5.17
2023-04-12T21:34:59.974Z,6.33
2023-04-12T21:37:27.026Z,4.47
2023-04-12T21:39:54.052Z,4.20
2023-04-12T21:42:21.100Z,5.53
2023-04-12T21:44:48.266Z,7.00
2023-04-12T21:47:15.725Z,5.53
2023-04-12T21:49:42.740Z,4.73
2023-04-12T21:52:09.954Z,4.40
2023-04-12T21:54:37.146Z,4.93
2023-04-12T21:57:04.591Z,4.93
2023-04-12T21:59:31.587Z,7.37
2023-04-12T22:01:58.853Z,4.73
2023-04-12T22:04:26.089Z,5.77
2023-04-12T22:06:53.176Z,6.20
2023-04-12T22:09:20.263Z,6.20
2023-04-12T22:11:48.994Z,7.70
2023-04-12T22:14:16.034Z,6.53
2023-04-12T22:16:43.188Z,5.20
2023-04-12T22:19:10.300Z,5.60
2023-04-12T22:21:37.379Z,4.70
2023-04-12T22:24:04.467Z,5.40
2023-04-12T22:26:31.529Z,5.93
2023-04-12T22:28:58.617Z,5.47
2023-04-12T22:31:26.298Z,5.77
2023-04-12T22:33:55.237Z,8.47
2023-04-12T22:36:28.496Z,8.43
2023-04-12T22:38:56.563Z,6.67
2023-04-12T22:41:23.654Z,6.07
2023-04-12T22:44:01.193Z,4.57
2023-04-12T22:46:31.803Z,5.47
2023-04-12T22:49:00.474Z,4.87
2023-04-12T22:51:28.001Z,7.57
2023-04-12T22:53:55.534Z,6.07
2023-04-12T22:56:22.980Z,16.70
2023-04-12T22:58:50.063Z,15.03
2023-04-12T23:01:18.329Z,9.47
2023-04-12T23:03:45.833Z,4.37
2023-04-12T23:06:12.956Z,4.13
2023-04-12T23:08:40.599Z,3.47
2023-04-12T23:11:08.326Z,4.03
2023-04-12T23:13:35.731Z,2.83
2023-04-12T23:16:03.717Z,3.30
2023-04-12T23:18:31.094Z,3.03
2023-04-12T23:20:58.104Z,2.77
2023-04-12T23:23:25.129Z,3.47
2023-04-12T23:25:52.916Z,3.03
2023-04-12T23:28:21.746Z,2.37
2023-04-12T23:30:50.118Z,5.43
2023-04-12T23:33:18.625Z,2.20
2023-04-12T23:35:46.522Z,2.60
2023-04-12T23:38:24.149Z,3.20
2023-04-12T23:40:54.078Z,2.03
2023-04-12T23:43:21.943Z,3.73
2023-04-12T23:45:49.389Z,2.67
2023-04-12T23:48:16.607Z,2.47
2023-04-12T23:50:45.590Z,4.50
2023-04-12T23:53:13.023Z,2.60
2023-04-12T23:55:41.020Z,3.00
2023-04-12T23:58:08.186Z,3.43
